createdAt,value
2024-02-13T00:00:10.189Z,100512.88
2024-02-13T00:02:38.398Z,100509.97
2024-02-13T00:05:09.416Z,100513.94
2024-02-13T00:07:37.622Z,100509.88
2024-02-13T00:10:05.968Z,100514.97
2024-02-13T00:12:32.458Z,100519.50
2024-02-13T00:14:59.697Z,100515.00
2024-02-13T00:17:26.494Z,100522.06
2024-02-13T00:19:53.767Z,100523.69
2024-02-13T00:22:20.818Z,100529.72
2024-02-13T00:24:49.217Z,100531.94
2024-02-13T00:27:16.449Z,100539.00
2024-02-13T00:29:45.835Z,100535.22
2024-02-13T00:32:13.612Z,100537.75
2024-02-13T00:34:41.169Z,100536.28
2024-02-13T00:37:09.365Z,100538.13
2024-02-13T00:39:35.907Z,100537.09
2024-02-13T00:42:04.015Z,100541.28
2024-02-13T00:44:31.027Z,100552.28
2024-02-13T00:46:58.514Z,100554.22
2024-02-13T00:49:25.093Z,100552.53
2024-02-13T00:51:51.661Z,100557.50
2024-02-13T00:54:18.268Z,100557.28
2024-02-13T00:56:44.977Z,100565.72
2024-02-13T00:59:11.811Z,100563.63
2024-02-13T01:01:39.032Z,100556.41
2024-02-13T01:04:07.549Z,100564.34
2024-02-13T01:06:34.974Z,100562.41
2024-02-13T01:09:04.322Z,100573.66
2024-02-13T01:11:30.904Z,100573.50
2024-02-13T01:13:57.600Z,100578.28
2024-02-13T01:16:26.652Z,100588.69
2024-02-13T01:18:53.566Z,100588.84
2024-02-13T01:21:20.273Z,100593.06
2024-02-13T01:23:47.445Z,100593.06
2024-02-13T01:26:14.822Z,100593.41
2024-02-13T01:28:41.724Z,100590.69
2024-02-13T01:31:08.353Z,100588.13
2024-02-13T01:33:35.056Z,100594.00
2024-02-13T01:36:02.864Z,100593.66
2024-02-13T01:38:31.344Z,100598.72
2024-02-13T01:40:58.216Z,100612.56
2024-02-13T01:43:26.324Z,100602.66
2024-02-13T01:45:54.008Z,100614.19
2024-02-13T01:48:22.451Z,100606.81
2024-02-13T01:50:50.563Z,100609.97
2024-02-13T01:53:19.683Z,100620.47
2024-02-13T01:55:47.076Z,100626.44
2024-02-13T01:58:13.859Z,100622.09
2024-02-13T02:00:40.588Z,100623.88
2024-02-13T02:03:10.045Z,100626.59
2024-02-13T02:05:36.657Z,100626.44
2024-02-13T02:08:03.457Z,100621.03
2024-02-13T02:10:29.890Z,100618.75
2024-02-13T02:12:56.404Z,100618.69
2024-02-13T02:15:22.978Z,100619.50
2024-02-13T02:17:56.289Z,100626.34
2024-02-13T02:20:24.015Z,100636.88
2024-02-13T02:22:51.522Z,100635.22
2024-02-13T02:25:19.773Z,100639.31
2024-02-13T02:27:46.723Z,100640.97
2024-02-13T02:30:14.566Z,100638.91
2024-02-13T02:32:42.046Z,100644.28
2024-02-13T02:35:30.878Z,100643.94
2024-02-13T02:37:58.995Z,100644.13
2024-02-13T02:40:25.521Z,100652.19
2024-02-13T02:42:56.659Z,100654.75
2024-02-13T02:45:23.416Z,100664.66
2024-02-13T02:47:50.947Z,100668.28
2024-02-13T02:50:17.643Z,100670.50
2024-02-13T02:52:44.512Z,100672.41
2024-02-13T02:55:11.435Z,100677.50
2024-02-13T02:57:39.295Z,100677.91
2024-02-13T03:00:13.874Z,100688.78
2024-02-13T03:02:43.016Z,100681.47
2024-02-13T03:05:12.879Z,100694.63
2024-02-13T03:07:39.575Z,100689.03
2024-02-13T03:10:11.531Z,100690.53
2024-02-13T03:12:39.076Z,100694.31
2024-02-13T03:15:05.929Z,100698.03
2024-02-13T03:17:32.966Z,100706.09
2024-02-13T03:20:02.009Z,100711.34
2024-02-13T03:22:29.244Z,100703.63
2024-02-13T03:24:57.901Z,100709.22
2024-02-13T03:27:24.479Z,100706.91
2024-02-13T03:29:51.032Z,100707.81
2024-02-13T03:32:17.854Z,100698.75
2024-02-13T03:34:44.483Z,100715.06
2024-02-13T03:37:10.986Z,100705.94
2024-02-13T03:39:37.483Z,100717.06
2024-02-13T03:42:04.259Z,100711.84
2024-02-13T03:44:30.798Z,100721.41
2024-02-13T03:46:57.291Z,100719.84
2024-02-13T03:49:23.996Z,100721.28
2024-02-13T03:51:50.520Z,100730.19
2024-02-13T03:54:17.138Z,100731.97
2024-02-13T03:56:44.626Z,100735.50
2024-02-13T03:59:14.031Z,100735.41
2024-02-13T04:01:42.182Z,100735.19
2024-02-13T04:04:09.477Z,100737.31
2024-02-13T04:06:36.764Z,100738.38
2024-02-13T04:09:04.653Z,100741.47
2024-02-13T04:11:31.615Z,100744.34
2024-02-13T04:13:58.680Z,100747.63
2024-02-13T04:16:25.287Z,100750.03
2024-02-13T04:18:54.396Z,100750.09
2024-02-13T04:21:21.459Z,100751.56
2024-02-13T04:23:51.654Z,100752.47
2024-02-13T04:26:30.972Z,100761.28
2024-02-13T04:29:03.406Z,100766.91
2024-02-13T04:31:31.905Z,100771.75
2024-02-13T04:33:58.756Z,100774.22
2024-02-13T04:36:25.539Z,100777.19
2024-02-13T04:38:52.208Z,100783.59
2024-02-13T04:41:21.613Z,100784.19
2024-02-13T04:43:48.665Z,100787.31
2024-02-13T04:46:15.296Z,100792.66
2024-02-13T04:49:16.345Z,100790.94
2024-02-13T04:51:44.419Z,100793.41
2024-02-13T04:54:10.897Z,100793.66
2024-02-13T04:56:37.618Z,100801.66
2024-02-13T04:59:16.217Z,100802.28
2024-02-13T05:01:46.406Z,100802.06
2024-02-13T05:05:50.967Z,100807.50
2024-02-13T05:07:20.861Z,100811.53
2024-02-13T05:09:47.889Z,100815.31
2024-02-13T05:12:15.911Z,100815.81
2024-02-13T05:14:43.167Z,100814.50
2024-02-13T05:17:09.768Z,100815.78
2024-02-13T05:19:36.197Z,100822.69
2024-02-13T05:22:02.715Z,100816.91
2024-02-13T05:24:30.133Z,100823.22
2024-02-13T05:26:56.981Z,100815.06
2024-02-13T05:29:23.690Z,100825.28
2024-02-13T05:31:52.347Z,100838.94
2024-02-13T05:34:18.957Z,100833.97
2024-02-13T05:36:45.652Z,100841.31
2024-02-13T05:39:12.101Z,100835.63
2024-02-13T05:41:38.865Z,100846.75
2024-02-13T05:44:05.428Z,100844.94
2024-02-13T05:46:32.000Z,100850.25
2024-02-13T05:49:01.350Z,100865.22
2024-02-13T05:51:28.308Z,100863.91
2024-02-13T05:53:54.919Z,100867.41
2024-02-13T05:56:27.219Z,100867.81
2024-02-13T05:58:56.974Z,100870.13
2024-02-13T06:02:20.146Z,100872.91
2024-02-13T06:04:46.716Z,100868.69
2024-02-13T06:07:14.911Z,100870.69
2024-02-13T06:13:30.349Z,100888.56
2024-02-13T06:15:56.878Z,100901.41
2024-02-13T06:18:24.589Z,100903.81
2024-02-13T06:20:51.739Z,100904.13
2024-02-13T06:23:18.647Z,100909.41
2024-02-13T06:25:45.330Z,100913.44
2024-02-13T06:28:12.106Z,100914.66
2024-02-13T06:30:40.488Z,100926.16
2024-02-13T06:33:07.245Z,100925.75
2024-02-13T06:35:34.721Z,100932.44
2024-02-13T06:38:01.246Z,100938.75
2024-02-13T06:40:27.808Z,100941.00
2024-02-13T06:42:54.371Z,100943.56
2024-02-13T06:45:21.084Z,100951.03
2024-02-13T06:47:47.621Z,100959.47
2024-02-13T06:50:14.584Z,100957.81
2024-02-13T06:52:42.320Z,100961.69
2024-02-13T06:55:09.747Z,100966.22
2024-02-13T06:57:37.151Z,100967.31
2024-02-13T07:00:08.759Z,100970.19
2024-02-13T07:02:36.322Z,100973.75
2024-02-13T07:05:03.017Z,100982.38
2024-02-13T07:08:04.042Z,100985.28
2024-02-13T07:10:30.967Z,100987.25
2024-02-13T07:13:00.352Z,100994.53
2024-02-13T07:15:26.919Z,100998.50
2024-02-13T07:18:00.015Z,100995.19
2024-02-13T07:20:28.183Z,101003.03
2024-02-13T07:22:54.970Z,101003.19
2024-02-13T07:25:21.500Z,101002.47
2024-02-13T07:27:50.228Z,101012.50
2024-02-13T07:30:17.062Z,101017.69
2024-02-13T07:32:46.032Z,101022.25
2024-02-13T07:35:12.760Z,101030.09
2024-02-13T07:37:39.226Z,101028.81
2024-02-13T07:40:06.344Z,101037.97
2024-02-13T07:42:32.770Z,101044.63
2024-02-13T07:45:00.315Z,101043.56
2024-02-13T07:47:27.993Z,101053.63
2024-02-13T07:49:56.135Z,101053.72
2024-02-13T07:52:22.679Z,101063.94
2024-02-13T07:54:49.296Z,101059.06
2024-02-13T07:57:17.339Z,101067.50
2024-02-13T07:59:44.893Z,101068.53
2024-02-13T08:02:12.022Z,101072.09
2024-02-13T08:04:39.482Z,101071.63
2024-02-13T08:07:08.850Z,101079.38
2024-02-13T08:09:35.868Z,101084.59
2024-02-13T08:12:04.148Z,101072.31
2024-02-13T08:14:31.783Z,101083.53
2024-02-13T08:16:59.743Z,101082.44
2024-02-13T08:19:27.441Z,101088.81
2024-02-13T08:21:54.001Z,101087.78
2024-02-13T08:24:22.072Z,101080.28
2024-02-13T08:26:49.536Z,101087.44
2024-02-13T08:29:16.266Z,101086.38
2024-02-13T08:31:42.793Z,101095.53
2024-02-13T08:34:09.482Z,101088.00
2024-02-13T08:36:38.228Z,101095.16
2024-02-13T08:39:04.892Z,101106.22
2024-02-13T08:41:32.912Z,101102.56
2024-02-13T08:44:00.217Z,101108.38
2024-02-13T08:46:26.732Z,101101.84
2024-02-13T08:48:53.570Z,101111.50
2024-02-13T08:51:20.366Z,101113.09
2024-02-13T08:53:47.961Z,101110.00
2024-02-13T08:56:14.951Z,101119.38
2024-02-13T08:58:42.082Z,101112.66
2024-02-13T09:01:09.566Z,101120.50
2024-02-13T09:03:36.167Z,101120.72
2024-02-13T09:06:06.082Z,101120.69
2024-02-13T09:08:34.220Z,101122.50
2024-02-13T09:11:00.740Z,101124.66
2024-02-13T09:13:29.844Z,101136.06
2024-02-13T09:15:56.609Z,101140.72
2024-02-13T09:18:24.273Z,101142.28
2024-02-13T09:20:51.124Z,101144.81
2024-02-13T09:23:21.150Z,101154.34
2024-02-13T09:25:52.696Z,101154.97
2024-02-13T09:28:19.110Z,101154.13
2024-02-13T09:30:48.890Z,101162.56
2024-02-13T09:33:15.942Z,101171.03
2024-02-13T09:35:42.602Z,101161.88
2024-02-13T09:38:09.323Z,101160.72
2024-02-13T09:40:35.961Z,101163.47
2024-02-13T09:43:02.858Z,101160.44
2024-02-13T09:45:30.632Z,101172.97
2024-02-13T09:48:07.619Z,101162.44
2024-02-13T09:50:38.405Z,101167.91
2024-02-13T09:53:15.745Z,101176.25
2024-02-13T09:55:44.361Z,101168.50
2024-02-13T09:58:11.726Z,101175.59
2024-02-13T10:00:38.287Z,101176.09
2024-02-13T10:03:07.328Z,101173.69
2024-02-13T10:05:34.187Z,101170.06
2024-02-13T10:08:01.003Z,101173.19
2024-02-13T10:10:27.601Z,101170.94
2024-02-13T10:12:56.309Z,101169.53
2024-02-13T10:15:55.983Z,101171.94
2024-02-13T10:18:26.380Z,101174.28
2024-02-13T10:20:53.028Z,101180.28
2024-02-13T10:23:25.595Z,101181.81
2024-02-13T10:25:53.696Z,101195.06
2024-02-13T10:28:20.720Z,101193.00
2024-02-13T10:30:53.940Z,101185.47
2024-02-13T10:33:20.784Z,101191.91
2024-02-13T10:35:54.056Z,101189.22
2024-02-13T10:38:24.669Z,101189.88
2024-02-13T10:40:53.218Z,101184.91
2024-02-13T10:43:20.546Z,101180.88
2024-02-13T10:45:50.305Z,101176.97
2024-02-13T10:48:26.538Z,101182.00
2024-02-13T10:50:55.106Z,101194.88
2024-02-13T10:53:22.469Z,101190.81
2024-02-13T10:55:54.186Z,101188.84
2024-02-13T10:58:28.279Z,101186.72
2024-02-13T11:01:00.353Z,101185.06
2024-02-13T11:03:27.342Z,101186.75
2024-02-13T11:05:54.224Z,101189.16
2024-02-13T11:08:21.430Z,101185.81
2024-02-13T11:10:47.999Z,101186.59
2024-02-13T11:13:19.543Z,101188.84
2024-02-13T11:15:47.559Z,101190.50
2024-02-13T11:18:14.701Z,101197.63
2024-02-13T11:20:43.509Z,101201.28
2024-02-13T11:23:17.313Z,101196.56
2024-02-13T11:25:57.294Z,101191.84
2024-02-13T11:28:23.788Z,101193.66
2024-02-13T11:30:50.670Z,101194.91
2024-02-13T11:33:21.328Z,101189.91
2024-02-13T11:35:56.125Z,101190.03
2024-02-13T11:38:27.259Z,101186.84
2024-02-13T11:40:56.652Z,101181.84
2024-02-13T11:43:30.250Z,101179.06
2024-02-13T11:45:58.507Z,101173.31
2024-02-13T11:48:31.658Z,101166.19
2024-02-13T11:51:00.956Z,101164.34
2024-02-13T11:53:29.452Z,101162.63
2024-02-13T11:55:56.543Z,101164.72
2024-02-13T11:58:24.103Z,101167.09
2024-02-13T12:01:01.679Z,101161.13
2024-02-13T12:03:32.114Z,101162.38
2024-02-13T12:06:00.266Z,101163.44
2024-02-13T12:08:29.078Z,101166.78
2024-02-13T12:10:58.940Z,101171.06
2024-02-13T12:13:25.857Z,101165.72
2024-02-13T12:15:52.879Z,101165.13
2024-02-13T12:18:19.640Z,101164.22
2024-02-13T12:20:48.248Z,101161.81
2024-02-13T12:23:17.232Z,101158.81
2024-02-13T12:25:47.044Z,101159.50
2024-02-13T12:28:14.386Z,101150.69
2024-02-13T12:30:51.732Z,101146.41
2024-02-13T12:33:24.303Z,101152.84
2024-02-13T12:36:06.905Z,101139.19
2024-02-13T12:38:34.504Z,101140.94
2024-02-13T12:41:01.089Z,101141.75
2024-02-13T12:43:30.578Z,101139.66
2024-02-13T12:46:03.736Z,101137.09
2024-02-13T12:48:37.787Z,101134.28
2024-02-13T12:51:10.579Z,101134.94
2024-02-13T12:53:38.298Z,101126.06
2024-02-13T12:56:05.684Z,101124.69
2024-02-13T12:58:33.795Z,101126.44
2024-02-13T13:01:16.931Z,101125.81
2024-02-13T13:03:48.138Z,101123.22
2024-02-13T13:06:15.598Z,101115.34
2024-02-13T13:08:43.507Z,101122.75
2024-02-13T13:11:10.774Z,101116.78
2024-02-13T13:13:39.957Z,101118.25
2024-02-13T13:16:08.281Z,101109.19
2024-02-13T13:18:40.021Z,101113.63
2024-02-13T13:21:07.010Z,101115.19
2024-02-13T13:23:34.825Z,101117.03
2024-02-13T13:26:02.353Z,101121.81
2024-02-13T13:28:30.751Z,101118.81
2024-02-13T13:31:02.078Z,101119.38
2024-02-13T13:33:32.097Z,101121.94
2024-02-13T13:36:00.687Z,101124.91
2024-02-13T13:38:29.851Z,101118.97
2024-02-13T13:41:02.230Z,101115.34
2024-02-13T13:43:30.146Z,101110.69
2024-02-13T13:45:59.104Z,101115.50
2024-02-13T13:48:28.557Z,101111.78
2024-02-13T13:50:55.464Z,101110.25
2024-02-13T13:53:24.228Z,101102.50
2024-02-13T13:55:50.730Z,101104.94
2024-02-13T13:58:17.536Z,101105.09
2024-02-13T14:00:44.699Z,101107.78
2024-02-13T14:03:14.600Z,101107.78
2024-02-13T14:05:41.230Z,101103.16
2024-02-13T14:08:10.364Z,101105.88
2024-02-13T14:10:38.237Z,101104.50
2024-02-13T14:13:05.430Z,101104.22
2024-02-13T14:15:35.786Z,101105.13
2024-02-13T14:18:03.451Z,101106.53
2024-02-13T14:20:38.755Z,101106.53
2024-02-13T14:23:06.435Z,101105.75
2024-02-13T14:25:33.206Z,101105.47
2024-02-13T14:27:59.722Z,101111.94
2024-02-13T14:30:26.991Z,101110.41
2024-02-13T14:32:55.727Z,101113.13
2024-02-13T14:35:23.050Z,101110.16
2024-02-13T14:37:52.981Z,101107.53
2024-02-13T14:40:21.898Z,101108.16
2024-02-13T14:42:48.942Z,101119.53
2024-02-13T14:45:16.544Z,101113.34
2024-02-13T14:47:43.547Z,101118.63
2024-02-13T14:50:11.888Z,101111.94
2024-02-13T14:52:40.112Z,101116.06
2024-02-13T14:55:10.676Z,101112.94
2024-02-13T14:57:44.064Z,101111.00
2024-02-13T15:00:21.602Z,101116.94
2024-02-13T15:02:49.119Z,101109.84
2024-02-13T15:05:17.116Z,101121.47
2024-02-13T15:07:45.651Z,101126.38
2024-02-13T15:10:15.526Z,101123.03
2024-02-13T15:12:42.016Z,101128.59
2024-02-13T15:15:11.566Z,101133.63
2024-02-13T15:17:38.209Z,101125.34
2024-02-13T15:20:08.153Z,101129.13
2024-02-13T15:22:36.450Z,101136.72
2024-02-13T15:25:04.454Z,101134.78
2024-02-13T15:27:32.098Z,101137.06
2024-02-13T15:29:58.618Z,101140.16
2024-02-13T15:32:25.345Z,101145.19
2024-02-13T15:34:55.021Z,101138.22
2024-02-13T15:37:40.240Z,101142.59
2024-02-13T15:40:25.555Z,101143.88
2024-02-13T15:43:10.471Z,101142.56
2024-02-13T15:45:55.268Z,101145.66
2024-02-13T15:48:21.873Z,101147.19
2024-02-13T15:50:48.436Z,101151.03
2024-02-13T15:53:15.492Z,101145.34
2024-02-13T15:55:42.420Z,101153.63
2024-02-13T15:58:08.872Z,101151.53
2024-02-13T16:00:35.333Z,101152.78
2024-02-13T16:03:04.015Z,101155.88
2024-02-13T16:05:31.307Z,101156.09
2024-02-13T16:08:00.847Z,101150.47
2024-02-13T16:10:30.394Z,101159.44
2024-02-13T16:12:57.430Z,101162.03
2024-02-13T16:15:24.663Z,101166.91
2024-02-13T16:17:51.455Z,101169.97
2024-02-13T16:20:18.021Z,101175.75
2024-02-13T16:22:47.463Z,101175.19
2024-02-13T16:25:14.738Z,101175.81
2024-02-13T16:27:41.590Z,101170.13
2024-02-13T16:30:11.656Z,101182.28
2024-02-13T16:32:40.750Z,101178.13
2024-02-13T16:35:10.352Z,101182.44
2024-02-13T16:37:37.880Z,101184.13
2024-02-13T16:40:06.460Z,101182.50
2024-02-13T16:42:34.016Z,101179.06
2024-02-13T16:45:00.730Z,101187.47
2024-02-13T16:47:27.446Z,101184.44
2024-02-13T16:49:58.831Z,101188.53
2024-02-13T16:52:27.846Z,101186.59
2024-02-13T16:54:54.314Z,101194.78
2024-02-13T16:57:20.883Z,101194.19
2024-02-13T16:59:47.349Z,101198.44
2024-02-13T17:02:16.038Z,101199.69
2024-02-13T17:04:43.561Z,101200.75
2024-02-13T17:07:11.027Z,101212.13
2024-02-13T17:09:37.599Z,101219.41
2024-02-13T17:12:04.338Z,101216.25
2024-02-13T17:14:31.716Z,101211.81
2024-02-13T17:16:58.439Z,101219.09
2024-02-13T17:19:25.975Z,101216.84
2024-02-13T17:21:52.763Z,101218.34
2024-02-13T17:24:19.232Z,101227.44
2024-02-13T17:26:45.754Z,101229.22
2024-02-13T17:29:12.618Z,101232.72
2024-02-13T17:31:39.075Z,101234.81
2024-02-13T17:34:05.789Z,101234.03
2024-02-13T17:36:32.614Z,101239.47
2024-02-13T17:38:59.165Z,101235.69
2024-02-13T17:41:28.606Z,101246.56
2024-02-13T17:43:59.210Z,101248.28
2024-02-13T17:46:26.962Z,101253.88
2024-02-13T17:48:53.792Z,101255.22
2024-02-13T17:51:20.380Z,101255.38
2024-02-13T17:53:47.144Z,101251.44
2024-02-13T17:56:13.735Z,101253.47
2024-02-13T17:58:40.280Z,101256.91
2024-02-13T18:01:06.928Z,101256.91
2024-02-13T18:03:33.647Z,101257.50
2024-02-13T18:06:02.805Z,101257.81
2024-02-13T18:08:29.546Z,101267.91
2024-02-13T18:10:56.153Z,101276.59
2024-02-13T18:13:23.393Z,101275.63
2024-02-13T18:15:51.194Z,101286.25
2024-02-13T18:18:19.254Z,101288.53
2024-02-13T18:20:46.650Z,101290.03
2024-02-13T18:23:13.893Z,101291.03
2024-02-13T18:25:40.485Z,101288.00
2024-02-13T18:28:07.277Z,101289.66
2024-02-13T18:30:33.830Z,101299.38
2024-02-13T18:33:00.566Z,101299.31
2024-02-13T18:35:28.151Z,101296.13
2024-02-13T18:37:54.797Z,101295.19
2024-02-13T18:40:21.889Z,101301.31
2024-02-13T18:42:48.462Z,101299.31
2024-02-13T18:45:15.059Z,101293.78
2024-02-13T18:47:45.285Z,101298.25
2024-02-13T18:50:12.097Z,101300.63
2024-02-13T18:52:38.654Z,101300.94
2024-02-13T18:55:09.833Z,101301.03
2024-02-13T18:57:37.459Z,101304.78
2024-02-13T19:00:07.388Z,101308.59
2024-02-13T19:02:34.663Z,101309.22
2024-02-13T19:05:01.539Z,101306.09
2024-02-13T19:07:28.352Z,101314.19
2024-02-13T19:09:54.952Z,101315.66
2024-02-13T19:12:21.410Z,101317.47
2024-02-13T19:14:47.924Z,101317.84
2024-02-13T19:17:16.247Z,101313.84
2024-02-13T19:19:42.985Z,101320.22
2024-02-13T19:22:09.486Z,101317.34
2024-02-13T19:24:36.019Z,101321.31
2024-02-13T19:27:02.962Z,101331.88
2024-02-13T19:29:29.551Z,101335.84
2024-02-13T19:31:56.030Z,101331.72
2024-02-13T19:34:24.790Z,101336.50
2024-02-13T19:36:53.156Z,101345.47
2024-02-13T19:39:21.144Z,101338.66
2024-02-13T19:41:47.660Z,101338.25
2024-02-13T19:44:15.173Z,101343.63
2024-02-13T19:46:42.609Z,101344.00
2024-02-13T19:49:11.457Z,101340.81
2024-02-13T19:51:41.798Z,101342.28
2024-02-13T19:54:08.396Z,101351.22
2024-02-13T19:56:34.920Z,101349.78
2024-02-13T19:59:01.460Z,101357.41
2024-02-13T20:01:28.089Z,101356.31
2024-02-13T20:03:54.777Z,101351.16
2024-02-13T20:06:21.869Z,101352.28
2024-02-13T20:08:48.556Z,101359.31
2024-02-13T20:11:17.557Z,101367.25
2024-02-13T20:13:45.068Z,101364.34
2024-02-13T20:16:11.559Z,101370.75
2024-02-13T20:18:38.312Z,101368.59
2024-02-13T20:21:05.330Z,101368.94
2024-02-13T20:23:36.681Z,101375.25
2024-02-13T20:26:03.273Z,101377.06
2024-02-13T20:28:29.737Z,101371.56
2024-02-13T20:30:56.366Z,101385.06
2024-02-13T20:33:23.714Z,101384.75
2024-02-13T20:35:59.921Z,101391.66
2024-02-13T20:38:26.544Z,101388.81
2024-02-13T20:40:56.238Z,101385.22
2024-02-13T20:43:27.956Z,101389.53
2024-02-13T20:45:54.694Z,101390.03
2024-02-13T20:48:23.041Z,101396.44
2024-02-13T20:50:49.591Z,101400.81
2024-02-13T20:53:16.168Z,101398.47
2024-02-13T20:55:42.749Z,101402.84
2024-02-13T20:58:10.433Z,101404.69
2024-02-13T21:00:37.231Z,101404.16
2024-02-13T21:03:04.626Z,101408.97
2024-02-13T21:05:31.426Z,101413.78
2024-02-13T21:07:58.915Z,101414.66
2024-02-13T21:10:27.287Z,101411.94
2024-02-13T21:12:54.164Z,101410.84
2024-02-13T21:15:20.612Z,101411.19
2024-02-13T21:17:47.078Z,101413.09
2024-02-13T21:20:15.094Z,101418.59
2024-02-13T21:23:00.565Z,101424.09
2024-02-13T21:25:27.108Z,101428.66
2024-02-13T21:27:53.609Z,101429.75
2024-02-13T21:30:20.164Z,101434.69
2024-02-13T21:32:47.688Z,101436.88
2024-02-13T21:35:14.818Z,101438.31
2024-02-13T21:37:42.380Z,101442.72
2024-02-13T21:40:14.881Z,101448.19
2024-02-13T21:42:42.405Z,101456.03
2024-02-13T21:45:09.624Z,101458.03
2024-02-13T21:47:41.951Z,101460.25
2024-02-13T21:50:15.046Z,101457.63
2024-02-13T21:52:42.010Z,101455.81
2024-02-13T21:55:08.918Z,101451.84
2024-02-13T21:57:35.416Z,101455.47
2024-02-13T22:00:06.248Z,101450.38
2024-02-13T22:02:36.791Z,101453.63
2024-02-13T22:05:07.369Z,101452.00
2024-02-13T22:07:35.211Z,101447.78
2024-02-13T22:10:01.759Z,101452.88
2024-02-13T22:12:28.265Z,101450.53
2024-02-13T22:14:54.770Z,101455.63
2024-02-13T22:17:21.336Z,101458.88
2024-02-13T22:19:47.975Z,101454.81
2024-02-13T22:22:14.462Z,101461.59
2024-02-13T22:24:40.945Z,101461.22
2024-02-13T22:27:07.718Z,101462.69
2024-02-13T22:29:34.807Z,101473.28
2024-02-13T22:32:01.353Z,101473.41
2024-02-13T22:34:28.798Z,101475.00
2024-02-13T22:36:55.443Z,101480.50
2024-02-13T22:39:21.953Z,101485.19
2024-02-13T22:41:48.587Z,101483.78
2024-02-13T22:44:15.087Z,101482.34
2024-02-13T22:46:41.849Z,101492.94
2024-02-13T22:49:08.415Z,101493.31
2024-02-13T22:51:35.031Z,101491.81
2024-02-13T22:54:01.581Z,101494.50
2024-02-13T22:56:28.125Z,101493.63
2024-02-13T22:58:56.548Z,101499.13
2024-02-13T23:01:24.891Z,101503.66
2024-02-13T23:03:51.696Z,101515.25
2024-02-13T23:06:18.418Z,101513.63
2024-02-13T23:08:45.181Z,101517.19
2024-02-13T23:11:11.807Z,101514.66
2024-02-13T23:13:42.894Z,101514.78
2024-02-13T23:16:12.603Z,101517.91
2024-02-13T23:18:41.382Z,101516.19
2024-02-13T23:21:08.247Z,101510.34
2024-02-13T23:23:35.169Z,101519.47
2024-02-13T23:26:02.294Z,101516.59
2024-02-13T23:28:35.842Z,101519.69
2024-02-13T23:31:10.725Z,101520.53
2024-02-13T23:33:37.287Z,101522.69
2024-02-13T23:36:04.207Z,101520.50
2024-02-13T23:38:31.035Z,101522.31
2024-02-13T23:40:57.650Z,101518.72
2024-02-13T23:43:24.125Z,101524.97
2024-02-13T23:45:50.632Z,101528.88
2024-02-13T23:48:20.698Z,101534.16
2024-02-13T23:50:47.370Z,101532.84
2024-02-13T23:53:14.839Z,101536.72
2024-02-13T23:55:41.431Z,101541.31
2024-02-13T23:58:08.094Z,101542.28
